Station: MURRAY BRIDGE AP

  Atmospheric Gas Attenuation - ITU Rec 676-11   --------------- db/100km ---------------
Date Time Temp RH % AH g/m3 Dew Point Wind Direction Speed kph Gust kph Barometer mB Rainfall Since 9am 24GHz 47GHz 76GHz 122GHz 134GHz 241GHz
17 03:00 2 96 5.34 1.5 7 9 1022.4 0 13.1 24.2 32.2 84.0 67.8 229.6
17 02:50 1.1 100 5.23 1.1 7 9 1022.4 0 12.9 24.3 32.1 83.7 67.1 227.0
17 02:40 2.6 96 5.56 2.1 6 7 1022.7 0 13.5 24.4 32.9 85.8 70.3 238.5
17 02:30 2.3 96 5.45 1.8 4 11 1022.6 0 13.3 24.3 32.6 84.9 69.1 234.1
17 02:20 2.8 93 5.46 1.8 0 0 1022.4 0 13.3 24.2 32.4 84.4 68.8 233.0
17 02:10 1.9 96 5.3 1.4 0 0 1022.3 0 13.0 24.2 32.1 83.6 67.4 228.0
17 02:00 2.1 100 5.6 2.1 0 0 1022.5 0 13.6 24.6 33.3 86.8 71.3 241.9
17 01:50 4.1 97 6.21 3.6 0 0 1022.6 0 14.9 25.1 35.0 91.3 77.9 265.1
17 01:40 2.8 98 5.75 2.5 0 0 1022.6 0 13.9 24.7 33.6 87.7 72.8 247.0
17 01:30 3.4 99 6.05 3.2 0 0 1022.9 0 14.6 25.0 34.6 90.4 76.4 259.7
17 01:20 4 99 6.3 3.8 0 0 1023 0 15.1 25.3 35.4 92.5 79.2 269.9
17 01:10 4.2 97 6.26 3.7 0 0 1023 0 15.0 25.2 35.2 91.8 78.5 267.2
17 01:00 3.9 97 6.13 3.4 4 7 1023.2 0 14.7 25.0 34.8 90.7 77.0 262.0
17 00:50 3.7 97 6.05 3.2 6 6 1023 0 14.5 24.9 34.5 90.0 76.1 258.7
17 00:40 4.3 100 6.49 4.3 7 7 1023 0 15.5 25.5 36.1 94.3 81.6 278.1
17 00:30 6.3 94 6.96 5.4 11 13 1023.3 0 16.4 25.7 37.2 97.2 86.0 293.7
17 00:20 2.5 98 5.64 2.2 7 9 1023.3 0 13.7 24.6 33.3 86.9 71.6 242.8
17 00:10 2.8 96 5.64 2.3 7 9 1023.3 0 13.7 24.5 33.2 86.5 71.3 241.9
17 00:00 4.2 93 6 3.2 4 11 1023.4 0 14.4 24.7 34.1 89.0 74.9 254.8
16 23:50 4.1 95 6.09 3.4 0 0 1023.3 0 14.6 24.9 34.5 90.1 76.3 259.4
16 23:40 3.9 97 6.13 3.4 2 4 1023.3 0 14.7 25.0 34.8 90.7 77.0 262.0
16 23:30 4.5 92 6.05 3.3 6 9 1023.5 0 14.5 24.7 34.2 89.2 75.3 256.2
16 23:20 4.7 93 6.2 3.7 6 7 1023.6 0 14.8 24.9 34.7 90.6 77.2 262.8
16 23:10 4.7 92 6.13 3.5 0 0 1023.6 0 14.7 24.8 34.4 89.8 76.2 259.4
16 23:00 4.6 95 6.29 3.9 4 7 1023.6 0 15.0 25.1 35.1 91.7 78.5 267.5
16 22:50 4.3 95 6.17 3.6 6 7 1023.5 0 14.8 25.0 34.8 90.7 77.2 262.7
16 22:40 4.3 99 6.43 4.1 6 7 1023.9 0 15.3 25.4 35.9 93.7 80.8 275.4
16 22:30 7.7 96 7.79 7.1 13 17 1024.1 0 18.1 26.8 40.0 104.8 95.9 328.9
16 22:20 7.8 94 7.67 6.9 15 15 1024.1 0 17.9 26.5 39.5 103.3 94.1 322.6
16 22:10 6.6 83 6.27 4 13 15 1024 0 14.9 24.5 34.2 89.2 76.3 259.9
16 22:00 5.6 99 7 5.4 9 11 1024.2 0 16.5 26.1 37.7 98.6 87.4 298.6
16 21:50 6.9 100 7.7 6.9 9 9 1024.1 0 18.0 26.9 40.0 104.9 95.7 327.8
16 21:40 7.7 94 7.63 6.8 13 15 1024.1 0 17.8 26.5 39.3 103.0 93.7 321.1
16 21:30 6.8 93 7.12 5.7 6 11 1024.1 0 16.7 25.9 37.6 98.4 87.7 299.8
16 21:20 6.5 94 7.05 5.6 0 0 1024 0 16.6 25.9 37.5 98.0 87.0 297.5
16 21:10 5.6 89 6.3 3.9 0 0 1024 0 15.0 24.9 34.8 90.7 77.7 264.6
16 21:00 4.9 93 6.28 3.9 4 6 1024.2 0 15.0 25.0 35.0 91.3 78.1 266.1
16 20:50 5.2 94 6.48 4.3 4 6 1024 0 15.4 25.3 35.7 93.2 80.6 274.7
16 20:40 7.4 97 7.72 7 9 9 1024.1 0 18.0 26.7 39.9 104.4 95.3 326.7
16 20:30 7.1 93 7.26 6 11 11 1024.2 0 17.0 26.1 38.1 99.6 89.3 305.5
16 20:20 7.8 94 7.67 6.9 9 11 1024.2 0 17.9 26.5 39.5 103.3 94.1 322.6
16 20:10 7.9 91 7.48 6.6 13 13 1024.1 0 17.5 26.2 38.6 101.0 91.4 312.9
16 20:00 7.2 95 7.46 6.5 11 15 1024.3 0 17.4 26.4 38.9 101.7 91.9 314.8
16 19:50 7.8 91 7.43 6.5 13 15 1024.2 0 17.3 26.1 38.4 100.6 90.8 310.9
16 19:40 7.4 94 7.48 6.5 9 11 1024.1 0 17.5 26.3 38.9 101.7 92.0 315.0
16 19:30 7.1 95 7.41 6.4 6 9 1024.1 0 17.3 26.3 38.7 101.3 91.3 312.7
16 19:20 6.1 94 6.87 5.2 7 7 1023.9 0 16.2 25.7 36.9 96.5 85.0 290.3
16 19:10 8.2 91 7.62 6.9 11 13 1023.9 0 17.7 26.3 39.0 102.2 92.9 318.5
16 19:00 7.3 93 7.35 6.2 7 9 1023.9 0 17.2 26.1 38.3 100.3 90.3 309.0
16 18:50 7.4 91 7.24 6.1 7 9 1023.7 0 17.0 25.9 37.8 99.0 88.6 303.2
16 18:40 8.3 89 7.5 6.6 13 13 1023.7 0 17.5 26.1 38.5 100.7 91.1 312.2
16 18:30 7.9 90 7.4 6.4 11 13 1023.7 0 17.3 26.0 38.3 100.1 90.2 309.0
16 18:20 8.1 87 7.24 6.1 11 11 1023.4 0 16.9 25.7 37.5 98.0 87.8 300.4
16 18:10 9.4 88 7.96 7.5 7 9 1023.3 0 18.4 26.5 39.8 104.4 96.1 329.8
16 18:00 9.4 88 7.96 7.5 6 7 1023.3 0 18.4 26.5 39.8 104.4 96.1 329.8
16 17:50 9.6 85 7.79 7.3 6 7 1023.2 0 18.0 26.2 39.0 102.2 93.5 320.7
16 17:40 9.6 85 7.79 7.3 9 11 1023.2 0 18.0 26.2 39.0 102.2 93.5 320.7
16 17:30 10.1 84 7.95 7.6 11 11 1023.3 0 18.4 26.3 39.4 103.3 95.1 326.3
16 17:20 11 81 8.11 7.9 11 11 1023.1 0 18.7 26.3 39.6 103.9 96.2 330.1
16 17:10 11.4 80 8.21 8.1 9 9 1023.1 0 18.9 26.3 39.9 104.4 97.0 333.2
16 17:00 12.4 77 8.41 8.6 7 9 1023.2 0 19.2 26.4 40.2 105.3 98.5 338.4
16 16:50 13.4 77 8.95 9.5 6 7 1023.1 0 20.3 27.0 41.9 109.8 104.4 359.4
16 16:40 13.9 75 8.99 9.6 11 11 1023.1 0 20.4 26.9 41.8 109.6 104.3 359.0
16 16:30 14.5 74 9.2 9.9 9 11 1023.2 0 20.8 27.0 42.3 111.0 106.3 366.2
16 16:20 14.8 72 9.12 9.8 9 9 1023.1 0 20.6 26.8 41.8 109.7 104.8 361.0
16 16:10 15.1 70 9.03 9.7 9 9 1023.1 0 20.4 26.6 41.3 108.4 103.2 355.4
16 16:00 15.4 66 8.67 9.2 11 15 1023.3 0 19.6 25.9 39.7 104.1 98.1 337.6
16 15:50 15.5 64 8.46 8.8 9 9 1023.1 0 19.2 25.5 38.8 101.8 95.3 327.6
16 15:40 15.5 65 8.59 9 7 9 1023.2 0 19.5 25.8 39.4 103.1 96.9 333.5
16 15:30 15.7 65 8.7 9.3 11 17 1023.2 0 19.7 25.9 39.7 104.0 98.1 337.7
16 15:20 15.9 64 8.67 9.1 11 11 1023.2 0 19.6 25.8 39.5 103.5 97.5 335.5
16 15:10 16 62 8.45 8.7 9 13 1023.1 0 19.2 25.4 38.6 101.0 94.5 325.1
16 15:00 15.8 65 8.75 9.2 13 15 1023.2 0 19.8 25.9 39.8 104.4 98.6 339.5
16 14:50 16.1 64 8.77 9.3 13 15 1023.1 0 19.8 25.9 39.8 104.2 98.5 339.1
16 14:40 16 63 8.58 9 9 11 1023.1 0 19.4 25.6 39.1 102.4 96.2 330.9
16 14:30 15.9 61 8.26 8.4 11 13 1023.1 0 18.8 25.1 37.9 99.2 92.2 317.0
16 14:20 16.2 63 8.69 9.2 9 13 1023 0 19.7 25.7 39.4 103.3 97.4 335.0
16 14:10 16.2 65 8.96 9.7 9 11 1023.1 0 20.2 26.1 40.5 106.1 100.9 347.3
16 14:00 16.2 63 8.69 9.2 9 11 1023.3 0 19.7 25.7 39.4 103.3 97.4 335.1
16 13:50 16 64 8.72 9.2 7 11 1023.2 0 19.7 25.8 39.6 103.9 98.0 337.3
16 13:40 15.9 66 8.94 9.5 15 17 1023.3 0 20.2 26.2 40.5 106.3 101.0 347.8
16 13:30 15.8 67 9.02 9.8 11 19 1023.5 0 20.4 26.4 40.9 107.3 102.2 352.0
16 13:20 16.2 67 9.24 10.1 13 15 1023.5 0 20.8 26.6 41.6 109.1 104.6 360.3
16 13:10 15.9 71 9.61 10.6 9 11 1023.6 0 21.6 27.3 43.3 113.6 109.9 378.9
16 13:00 15.1 71 9.16 9.9 13 19 1023.8 0 20.7 26.8 41.9 109.8 105.0 361.7
16 12:50 16.1 67 9.18 10 15 17 1023.9 0 20.7 26.6 41.4 108.7 103.9 358.1
16 12:40 15.7 72 9.63 10.8 11 13 1024.1 0 21.7 27.4 43.5 114.1 110.5 381.0
16 12:30 14.8 74 9.37 10.2 13 17 1024.4 0 21.2 27.3 42.9 112.6 108.3 373.1
16 12:20 15.3 74 9.66 10.8 17 20 1024.4 0 21.8 27.6 43.8 115.1 111.5 384.4
16 12:10 15.1 74 9.55 10.5 7 11 1024.5 0 21.5 27.5 43.5 114.2 110.3 380.2
16 12:00 15.5 73 9.65 10.8 11 20 1024.8 0 21.7 27.5 43.7 114.7 111.1 383.1
16 11:50 14.9 75 9.56 10.5 13 13 1024.9 0 21.6 27.6 43.7 114.6 110.8 381.8
16 11:40 15.4 72 9.46 10.4 7 7 1025 0 21.3 27.3 43.0 112.8 108.7 374.7
16 11:30 15.4 76 9.99 11.3 11 15 1025.2 0 22.5 28.2 45.2 118.6 115.9 399.9
16 11:20 14.7 78 9.82 10.9 13 13 1025.2 0 22.1 28.1 44.9 117.8 114.6 395.3
16 11:10 14.7 78 9.82 10.9 9 11 1025.3 0 22.1 28.1 44.9 117.8 114.6 395.3
16 11:00 14.7 78 9.82 10.9 13 19 1025.5 0 22.1 28.1 44.9 117.8 114.7 395.4
16 10:50 14.3 78 9.58 10.5 13 15 1025.5 0 21.6 27.8 44.1 115.8 112.0 385.9
16 10:40 14.5 78 9.7 10.7 17 20 1025.5 0 21.9 28.0 44.5 116.8 113.3 390.6
16 10:30 14.4 79 9.77 10.8 15 19 1025.6 0 22.0 28.1 44.8 117.8 114.4 394.5

Last Refresh: 17-Jul-2020 03:16:17

Most of the information presented on this site is sourced from the Bureau of Meteorology.  Copyright in all material sourced from the Bureau of Meteorology resides with the Commonwealth of Australia.